Time,TemperatureF,DewpointF,PressureIn,WindDirection,WindDirectionDegrees,WindSpeedMPH,WindSpeedGustMPH,Humidity,HourlyPrecipIn,Conditions,Clouds,dailyrainin,SoftwareType,DateUTC
2013-06-10 00:02:00,60.0,60.0,-100.00,North,-999,-999.0,-999.0,99,-99.99,,,-99.99,,2013-06-10 07:02:00,
2013-06-10 00:32:00,59.0,59.0,-100.00,North,-999,-999.0,-999.0,99,-99.99,,,-99.99,,2013-06-10 07:32:00,
2013-06-10 00:42:00,59.0,59.0,-100.00,North,-999,-999.0,-999.0,99,-99.99,,,-99.99,,2013-06-10 07:42:00,
2013-06-10 00:52:00,59.0,59.0,-100.00,North,-999,-999.0,-999.0,99,-99.99,,,-99.99,,2013-06-10 07:52:00,
2013-06-10 01:02:00,58.0,58.0,-100.00,North,-999,-999.0,-999.0,99,-99.99,,,-99.99,,2013-06-10 08:02:00,
2013-06-10 01:32:00,55.0,55.0,-100.00,North,-999,-999.0,-999.0,99,-99.99,,,-99.99,,2013-06-10 08:32:00,
2013-06-10 01:42:00,56.0,-99.9,-100.00,North,-999,-999.0,-999.0,-999,-99.99,,,-99.99,,2013-06-10 08:42:00,
2013-06-10 01:52:00,56.0,56.0,-100.00,North,-999,-999.0,-999.0,99,-99.99,,,-99.99,,2013-06-10 08:52:00,
2013-06-10 02:02:00,56.0,56.0,-100.00,North,-999,-999.0,-999.0,99,-99.99,,,-99.99,,2013-06-10 09:02:00,
2013-06-10 02:12:00,56.0,56.0,-100.00,North,-999,-999.0,-999.0,99,-99.99,,,-99.99,,2013-06-10 09:12:00,
2013-06-10 02:21:00,56.0,56.0,-100.00,North,-999,-999.0,-999.0,99,-99.99,,,-99.99,,2013-06-10 09:21:00,
2013-06-10 02:32:00,56.0,56.0,-100.00,North,-999,-999.0,-999.0,99,-99.99,,,-99.99,,2013-06-10 09:32:00,
2013-06-10 03:12:00,55.0,55.0,-100.00,North,-999,-999.0,-999.0,99,-99.99,,,-99.99,,2013-06-10 10:12:00,
2013-06-10 03:22:00,55.0,55.0,-100.00,North,-999,-999.0,-999.0,99,-99.99,,,-99.99,,2013-06-10 10:22:00,
2013-06-10 03:30:00,54.0,54.0,-100.00,North,-999,-999.0,-999.0,99,-99.99,,,-99.99,,2013-06-10 10:30:00,
2013-06-10 03:33:00,-999.0,-99.9,-100.00,North,10,0.0,-999.0,-999,-99.99,,,-99.99,,2013-06-10 10:33:00,
2013-06-10 03:42:00,-999.0,-99.9,-100.00,North,10,0.0,-999.0,-999,-99.99,,,-99.99,,2013-06-10 10:42:00,
2013-06-10 03:52:00,54.0,54.0,-100.00,North,-999,-999.0,-999.0,99,-99.99,,,-99.99,,2013-06-10 10:52:00,
2013-06-10 04:02:00,54.0,54.0,-100.00,North,-999,-999.0,-999.0,99,-99.99,,,-99.99,,2013-06-10 11:02:00,
2013-06-10 04:12:00,54.0,54.0,-100.00,North,-999,-999.0,-999.0,99,-99.99,,,-99.99,,2013-06-10 11:12:00,
2013-06-10 04:22:00,54.0,54.0,-100.00,North,-999,-999.0,-999.0,99,-99.99,,,-99.99,,2013-06-10 11:22:00,
2013-06-10 06:32:00,51.0,51.0,-100.00,North,-999,-999.0,-999.0,99,-99.99,,,-99.99,,2013-06-10 13:32:00,
2013-06-10 06:40:00,51.0,-99.9,-100.00,North,-999,-999.0,-999.0,-999,-99.99,,,-99.99,,2013-06-10 13:40:00,
2013-06-10 06:43:00,-999.0,-99.9,-100.00,West,280,0.0,-999.0,-999,-99.99,,,-99.99,,2013-06-10 13:43:00,
2013-06-10 06:52:00,52.0,52.0,-100.00,North,-999,-999.0,-999.0,99,-99.99,,,-99.99,,2013-06-10 13:52:00,
2013-06-10 07:02:00,51.0,-99.9,-100.00,North,-999,-999.0,-999.0,-999,-99.99,,,-99.99,,2013-06-10 14:02:00,
2013-06-10 07:13:00,51.0,-99.9,-100.00,North,-999,-999.0,-999.0,-999,-99.99,,,-99.99,,2013-06-10 14:13:00,
2013-06-10 07:22:00,51.0,-99.9,-100.00,North,-999,-999.0,-999.0,-999,-99.99,,,-99.99,,2013-06-10 14:22:00,
2013-06-10 07:32:00,51.0,-99.9,-100.00,North,-999,-999.0,-999.0,-999,-99.99,,,-99.99,,2013-06-10 14:32:00,
2013-06-10 08:22:00,56.0,56.0,-100.00,North,-999,-999.0,-999.0,99,-99.99,,,-99.99,,2013-06-10 15:22:00,
2013-06-10 08:32:00,56.0,56.0,-100.00,North,-999,-999.0,-999.0,99,-99.99,,,-99.99,,2013-06-10 15:32:00,
2013-06-10 09:03:00,65.0,55.0,-100.00,North,-999,-999.0,-999.0,71,-99.99,,,-99.99,,2013-06-10 16:03:00,
2013-06-10 09:13:00,-999.0,-99.9,-100.00,SSW,200,2.0,-999.0,-999,-99.99,,,-99.99,,2013-06-10 16:13:00,
2013-06-10 09:23:00,-999.0,-99.9,-100.00,South,180,6.0,-999.0,-999,-99.99,,,-99.99,,2013-06-10 16:23:00,
2013-06-10 09:33:00,-999.0,-99.9,-100.00,SSW,210,6.0,-999.0,-999,-99.99,,,-99.99,,2013-06-10 16:33:00,
2013-06-10 09:43:00,-999.0,-99.9,-100.00,SSW,210,3.0,-999.0,-999,-99.99,,,-99.99,,2013-06-10 16:43:00,
2013-06-10 09:52:00,66.0,50.0,-100.00,North,-999,-999.0,-999.0,55,-99.99,,,-99.99,,2013-06-10 16:52:00,
2013-06-10 10:03:00,-999.0,-99.9,-100.00,South,190,5.0,-999.0,-999,-99.99,,,-99.99,,2013-06-10 17:03:00,
2013-06-10 10:14:00,-999.0,-99.9,-100.00,SSW,210,5.0,-999.0,-999,-99.99,,,-99.99,,2013-06-10 17:14:00,
2013-06-10 10:27:00,-999.0,-99.9,-100.00,SSW,210,5.0,-999.0,-999,-99.99,,,-99.99,,2013-06-10 17:27:00,
2013-06-10 10:38:00,68.0,50.0,-100.00,North,-999,-999.0,-999.0,52,-99.99,,,-99.99,,2013-06-10 17:38:00,
2013-06-10 10:48:00,68.0,50.0,-100.00,North,-999,-999.0,-999.0,52,-99.99,,,-99.99,,2013-06-10 17:48:00,
2013-06-10 10:58:00,68.0,50.0,-100.00,North,-999,-999.0,-999.0,52,-99.99,,,-99.99,,2013-06-10 17:58:00,
2013-06-10 11:08:00,-999.0,-99.9,-100.00,NW,320,2.0,-999.0,-999,-99.99,,,-99.99,,2013-06-10 18:08:00,
2013-06-10 11:14:00,-999.0,-99.9,-100.00,NW,320,2.0,-999.0,-999,-99.99,,,-99.99,,2013-06-10 18:14:00,
2013-06-10 11:25:00,-999.0,-99.9,-100.00,NW,320,2.0,-999.0,-999,-99.99,,,-99.99,,2013-06-10 18:25:00,
2013-06-10 11:35:00,-999.0,-99.9,-100.00,NW,320,2.0,-999.0,-999,-99.99,,,-99.99,,2013-06-10 18:35:00,
2013-06-10 11:48:00,66.0,58.0,-100.00,North,-999,-999.0,-999.0,74,-99.99,,,-99.99,,2013-06-10 18:48:00,
2013-06-10 11:55:00,66.0,58.0,-100.00,North,-999,-999.0,-999.0,74,-99.99,,,-99.99,,2013-06-10 18:55:00,
2013-06-10 12:03:00,-999.0,-99.9,-100.00,South,190,4.0,-999.0,-999,-99.99,,,-99.99,,2013-06-10 19:03:00,
2013-06-10 12:13:00,-999.0,-99.9,-100.00,SSW,200,9.0,-999.0,788,-99.99,,,-99.99,,2013-06-10 19:13:00,
2013-06-10 12:23:00,-999.0,-99.9,-100.00,SSW,200,9.0,-999.0,788,-99.99,,,-99.99,,2013-06-10 19:23:00,
2013-06-10 12:33:00,-999.0,-99.9,-100.00,SW,220,49.0,-999.0,-999,-99.99,,,-99.99,,2013-06-10 19:33:00,
2013-06-10 12:43:00,-999.0,-99.9,-100.00,SW,220,49.0,-999.0,-999,-99.99,,,-99.99,,2013-06-10 19:43:00,
2013-06-10 12:53:00,-999.0,-99.9,-100.00,SW,220,49.0,-999.0,-999,-99.99,,,-99.99,,2013-06-10 19:53:00,
2013-06-10 13:03:00,-999.0,-99.9,-100.00,WSW,250,39.0,-999.0,-999,-99.99,,,-99.99,,2013-06-10 20:03:00,
2013-06-10 13:12:00,65.0,53.0,-100.00,West,260,3.0,-999.0,66,-99.99,,,-99.99,,2013-06-10 20:12:00,
2013-06-10 13:22:00,65.0,53.0,-100.00,West,260,3.0,-999.0,66,-99.99,,,-99.99,,2013-06-10 20:22:00,
2013-06-10 13:52:00,66.0,50.0,-100.00,SSW,200,3.0,-999.0,55,-99.99,,,-99.99,,2013-06-10 20:52:00,
2013-06-10 14:02:00,66.0,50.0,-100.00,SSW,200,3.0,-999.0,55,-99.99,,,-99.99,,2013-06-10 21:02:00,
2013-06-10 14:33:00,64.0,44.0,-100.00,North,-999,-999.0,-999.0,47,-99.99,,,-99.99,,2013-06-10 21:33:00,
2013-06-10 14:42:00,64.0,44.0,-100.00,North,-999,-999.0,-999.0,47,-99.99,,,-99.99,,2013-06-10 21:42:00,
2013-06-10 14:54:00,62.0,-99.9,-100.00,North,-999,-999.0,-999.0,-999,-99.99,,,-99.99,,2013-06-10 21:54:00,
2013-06-10 15:03:00,62.0,-99.9,-100.00,North,-999,-999.0,-999.0,-999,-99.99,,,-99.99,,2013-06-10 22:03:00,
2013-06-10 15:13:00,62.0,-99.9,-100.00,North,-999,-999.0,-999.0,-999,-99.99,,,-99.99,,2013-06-10 22:13:00,
2013-06-10 15:23:00,62.0,-99.9,-100.00,North,-999,-999.0,-999.0,-999,-99.99,,,-99.99,,2013-06-10 22:23:00,
2013-06-10 15:53:00,-999.0,-99.9,-100.00,West,270,4.0,-999.0,-999,-99.99,,,-99.99,,2013-06-10 22:53:00,
2013-06-10 16:02:00,59.0,54.0,-100.00,North,-999,-999.0,-999.0,83,-99.99,,,-99.99,,2013-06-10 23:02:00,
2013-06-10 17:02:00,57.0,52.0,-100.00,North,-999,-999.0,-999.0,83,-99.99,,,-99.99,,2013-06-11 00:02:00,
2013-06-10 17:12:00,57.0,52.0,-100.00,North,-999,-999.0,-999.0,83,-99.99,,,-99.99,,2013-06-11 00:12:00,
2013-06-10 17:22:00,57.0,52.0,-100.00,North,-999,-999.0,-999.0,83,-99.99,,,-99.99,,2013-06-11 00:22:00,
2013-06-10 17:32:00,59.0,52.0,-100.00,North,-999,-999.0,-999.0,78,-99.99,,,-99.99,,2013-06-11 00:32:00,
2013-06-10 17:43:00,59.0,52.0,-100.00,North,-999,-999.0,-999.0,78,-99.99,,,-99.99,,2013-06-11 00:43:00,
2013-06-10 17:52:00,59.0,52.0,-100.00,North,-999,-999.0,-999.0,78,-99.99,,,-99.99,,2013-06-11 00:52:00,
2013-06-10 18:02:00,59.0,52.0,-100.00,North,-999,-999.0,-999.0,78,-99.99,,,-99.99,,2013-06-11 01:02:00,
2013-06-10 18:12:00,60.0,54.0,-100.00,North,-999,-999.0,-999.0,79,-99.99,,,-99.99,,2013-06-11 01:12:00,
2013-06-10 18:22:00,60.0,54.0,-100.00,North,-999,-999.0,-999.0,79,-99.99,,,-99.99,,2013-06-11 01:22:00,
2013-06-10 18:33:00,-999.0,-99.9,-100.00,NNW,330,1.0,-999.0,-999,-99.99,,,-99.99,,2013-06-11 01:33:00,
2013-06-10 18:42:00,58.0,53.0,-100.00,North,-999,-999.0,-999.0,84,-99.99,,,-99.99,,2013-06-11 01:42:00,
2013-06-10 18:52:00,60.0,55.0,-100.00,North,-999,-999.0,-999.0,83,-99.99,,,-99.99,,2013-06-11 01:52:00,
2013-06-10 19:02:00,60.0,55.0,-100.00,North,-999,-999.0,-999.0,83,-99.99,,,-99.99,,2013-06-11 02:02:00,
2013-06-10 19:12:00,58.0,53.0,-100.00,North,-999,-999.0,-999.0,83,-99.99,,,-99.99,,2013-06-11 02:12:00,
2013-06-10 19:21:00,58.0,53.0,-100.00,North,-999,-999.0,-999.0,83,-99.99,,,-99.99,,2013-06-11 02:21:00,
2013-06-10 19:32:00,58.0,53.0,-100.00,North,-999,-999.0,-999.0,83,-99.99,,,-99.99,,2013-06-11 02:32:00,
2013-06-10 19:42:00,58.0,53.0,-100.00,North,-999,-999.0,-999.0,83,-99.99,,,-99.99,,2013-06-11 02:42:00,
2013-06-10 20:50:00,-999.0,-99.9,-100.00,SW,230,7.0,-999.0,-999,-99.99,,,-99.99,,2013-06-11 03:50:00,
2013-06-10 21:03:00,-999.0,-99.9,-100.00,South,190,1.0,-999.0,-999,-99.99,,,-99.99,,2013-06-11 04:03:00,
2013-06-10 21:13:00,-999.0,-99.9,-100.00,SW,230,7.0,-999.0,-999,-99.99,,,-99.99,,2013-06-11 04:13:00,
2013-06-10 21:23:00,-999.0,-99.9,-100.00,SW,230,7.0,-999.0,-999,-99.99,,,-99.99,,2013-06-11 04:23:00,
2013-06-10 21:34:00,-999.0,-99.9,-100.00,SW,230,7.0,-999.0,-999,-99.99,,,-99.99,,2013-06-11 04:34:00,
2013-06-10 21:43:00,-999.0,-99.9,-100.00,SW,230,7.0,-999.0,-999,-99.99,,,-99.99,,2013-06-11 04:43:00,